createdAt,value
2022-07-27T00:02:16.566Z,16.2
2022-07-27T00:07:56.743Z,16.1
2022-07-27T00:13:37.097Z,16
2022-07-27T00:19:17.588Z,16
2022-07-27T00:25:16.348Z,16.1
2022-07-27T00:30:56.947Z,16
2022-07-27T00:36:38.110Z,16
2022-07-27T00:42:18.258Z,16
2022-07-27T00:47:58.654Z,15.9
2022-07-27T00:53:39.034Z,16
2022-07-27T00:59:19.367Z,15.9
2022-07-27T01:04:59.797Z,15.7
2022-07-27T01:10:43.659Z,15.6
2022-07-27T01:16:24.569Z,15.6
2022-07-27T01:22:05.466Z,15.5
2022-07-27T01:27:45.383Z,15.4
2022-07-27T01:33:25.733Z,15.5
2022-07-27T01:39:06.397Z,15.4
2022-07-27T01:44:46.386Z,15.3
2022-07-27T01:50:26.618Z,15.2
2022-07-27T01:56:06.908Z,15.1
2022-07-27T02:01:46.960Z,15
2022-07-27T02:07:28.304Z,14.9
2022-07-27T02:13:15.282Z,14.6
2022-07-27T02:19:04.681Z,14.4
2022-07-27T02:24:51.192Z,14.2
2022-07-27T02:30:31.344Z,13.9
2022-07-27T02:36:11.671Z,13.6
2022-07-27T02:41:52.334Z,13.5
2022-07-27T02:47:32.584Z,13.4
2022-07-27T02:53:12.594Z,13.3
2022-07-27T02:58:52.742Z,13.1
2022-07-27T03:04:33.305Z,13
2022-07-27T03:10:14.433Z,12.9
2022-07-27T03:15:54.894Z,12.9
2022-07-27T03:21:36.186Z,12.8
2022-07-27T03:27:16.473Z,12.9
2022-07-27T03:32:57.001Z,12.7
2022-07-27T03:38:37.439Z,12.6
2022-07-27T03:44:17.599Z,12.4
2022-07-27T03:49:58.080Z,12.4
2022-07-27T04:05:40.901Z,12.3
2022-07-27T04:11:21.402Z,12.4
2022-07-27T04:17:10.253Z,12.3
2022-07-27T04:23:38.080Z,12.4
2022-07-27T04:29:20.663Z,12.5
2022-07-27T04:35:04.350Z,12.5
2022-07-27T04:40:44.874Z,13.3
2022-07-27T04:46:26.201Z,15.2
2022-07-27T04:52:08.307Z,16.9
2022-07-27T04:57:48.575Z,16.7
2022-07-27T05:03:28.538Z,16.2
2022-07-27T05:09:09.105Z,15.8
2022-07-27T05:14:52.263Z,15.9
2022-07-27T05:20:33.251Z,17.7
2022-07-27T05:26:17.143Z,17.4
2022-07-27T05:31:56.952Z,16.7
2022-07-27T05:37:38.193Z,17.1
2022-07-27T05:43:26.877Z,16.8
2022-07-27T05:49:09.812Z,16.3
2022-07-27T05:54:56.953Z,16.1
2022-07-27T06:00:37.634Z,16.5
2022-07-27T06:06:19.521Z,19
2022-07-27T06:12:00.668Z,21.2
2022-07-27T06:17:41.887Z,23
2022-07-27T06:23:23.012Z,24
2022-07-27T06:29:09.863Z,25
2022-07-27T06:34:54.087Z,24
2022-07-27T06:40:35.087Z,24.1
2022-07-27T06:46:15.489Z,23.7
2022-07-27T06:51:56.882Z,24.4
2022-07-27T06:57:37.349Z,25.1
2022-07-27T07:03:20.743Z,25.2
2022-07-27T07:09:01.669Z,25.4
2022-07-27T07:14:42.212Z,25.7
2022-07-27T07:20:21.734Z,24.5
2022-07-27T07:26:01.106Z,23.5
2022-07-27T07:31:41.061Z,21.7
2022-07-27T07:37:21.020Z,21.4
2022-07-27T07:43:14.306Z,21.4
2022-07-27T07:48:55.857Z,24
2022-07-27T07:54:37.638Z,23.5
2022-07-27T08:00:19.043Z,24.9
2022-07-27T08:05:58.869Z,24.9
2022-07-27T08:11:43.176Z,25.9
2022-07-27T08:17:22.415Z,22.3
2022-07-27T08:23:03.802Z,25
2022-07-27T08:28:47.671Z,25
2022-07-27T08:34:30.457Z,23.8
2022-07-27T08:46:30.541Z,22.7
2022-07-27T08:52:11.289Z,22
2022-07-27T08:57:51.245Z,22.4
2022-07-27T09:03:31.768Z,22.7
2022-07-27T09:09:13.212Z,23
2022-07-27T09:14:57.716Z,22.5
2022-07-27T09:20:40.316Z,22
2022-07-27T09:26:32.857Z,21.5
2022-07-27T09:32:16.077Z,20.5
2022-07-27T09:38:07.296Z,20.6
2022-07-27T09:44:31.065Z,21.3
2022-07-27T09:50:37.573Z,21.9
2022-07-27T09:57:41.963Z,22.4
2022-07-27T10:03:22.709Z,23.1
2022-07-27T10:11:47.591Z,23.1
2022-07-27T10:17:27.952Z,23.6
2022-07-27T10:23:08.654Z,24.6
2022-07-27T10:29:16.987Z,26.2
2022-07-27T10:35:16.794Z,26.7
2022-07-27T10:40:57.512Z,26.5
2022-07-27T10:46:37.761Z,25.9
2022-07-27T10:52:39.568Z,26.3
2022-07-27T10:58:20.329Z,27.4
2022-07-27T11:04:04.929Z,28.6
2022-07-27T11:10:04.282Z,27
2022-07-27T11:16:26.969Z,28.3
2022-07-27T11:23:50.314Z,28.4
2022-07-27T11:29:35.661Z,29.5
2022-07-27T11:36:15.848Z,29.2
2022-07-27T11:42:08.318Z,27.6
2022-07-27T11:48:04.279Z,25.7
2022-07-27T11:53:44.610Z,25.9
2022-07-27T11:59:25.437Z,28.3
2022-07-27T12:05:05.644Z,27.7
2022-07-27T12:10:47.045Z,27.3
2022-07-27T12:16:27.985Z,25.1
2022-07-27T12:22:23.474Z,24.1
2022-07-27T12:28:07.088Z,23.9
2022-07-27T12:34:02.889Z,24.4
2022-07-27T12:39:55.499Z,24.6
2022-07-27T12:45:58.621Z,24.7
2022-07-27T12:51:57.423Z,25.1
2022-07-27T12:57:55.565Z,25.2
2022-07-27T13:03:44.465Z,25.4
2022-07-27T13:09:24.520Z,25.7
2022-07-27T13:15:45.966Z,29.8
2022-07-27T13:21:27.845Z,28
2022-07-27T13:27:09.731Z,25.9
2022-07-27T13:33:35.276Z,24.9
2022-07-27T13:39:27.448Z,25.9
2022-07-27T13:45:42.228Z,30.1
2022-07-27T13:51:24.823Z,31.8
2022-07-27T13:57:05.758Z,30.6
2022-07-27T14:02:45.626Z,26.3
2022-07-27T14:08:27.150Z,25
2022-07-27T14:14:10.015Z,23.6
2022-07-27T14:19:50.670Z,23.2
2022-07-27T14:25:30.916Z,23.6
2022-07-27T14:31:14.219Z,23.8
2022-07-27T14:37:15.792Z,24
2022-07-27T14:42:58.612Z,24.2
2022-07-27T14:49:05.522Z,24
2022-07-27T15:06:08.913Z,30.5
2022-07-27T15:17:33.659Z,31.4
2022-07-27T15:23:24.137Z,28.7
2022-07-27T15:29:04.057Z,27.4
2022-07-27T15:34:50.758Z,25.3
2022-07-27T15:40:54.003Z,24
2022-07-27T15:46:33.964Z,23.9
2022-07-27T15:52:14.973Z,23.4
2022-07-27T15:57:55.506Z,23.5
2022-07-27T16:03:36.143Z,22.5
2022-07-27T16:09:18.187Z,22.1
2022-07-27T16:14:58.433Z,22
2022-07-27T16:20:38.629Z,21.9
2022-07-27T16:26:18.620Z,21.8
2022-07-27T16:31:58.742Z,21.7
2022-07-27T16:37:38.954Z,21.4
2022-07-27T16:43:19.295Z,21.2
2022-07-27T16:48:59.789Z,21.1
2022-07-27T16:54:43.354Z,21.2
2022-07-27T17:00:23.492Z,21.3
2022-07-27T17:06:06.296Z,21.4
2022-07-27T17:16:52.079Z,21.5
2022-07-27T17:22:32.894Z,21.3
2022-07-27T17:28:12.954Z,21.1
2022-07-27T17:33:53.165Z,20.9
2022-07-27T17:39:33.670Z,20.7
2022-07-27T17:45:13.621Z,20.5
2022-07-27T17:50:54.081Z,20.5
2022-07-27T17:56:34.584Z,20.5
2022-07-27T18:02:14.871Z,20.4
2022-07-27T18:07:55.895Z,20.3
2022-07-27T18:13:38.066Z,20.2
2022-07-27T18:19:20.259Z,20.1
2022-07-27T18:25:00.903Z,19.9
2022-07-27T18:30:41.539Z,19.8
2022-07-27T18:36:24.732Z,19.7
2022-07-27T18:42:04.999Z,19.6
2022-07-27T18:47:49.157Z,19.5
2022-07-27T18:53:33.725Z,19.4
2022-07-27T18:59:14.246Z,19.2
2022-07-27T19:04:56.761Z,19
2022-07-27T19:10:37.263Z,18.8
2022-07-27T19:16:17.442Z,18.6
2022-07-27T19:21:57.709Z,18.3
2022-07-27T19:27:40.982Z,18
2022-07-27T19:33:21.641Z,17.8
2022-07-27T19:39:05.681Z,17.5
2022-07-27T19:44:50.709Z,17.3
2022-07-27T19:50:30.803Z,17
2022-07-27T19:56:11.082Z,16.8
2022-07-27T20:01:51.515Z,16.6
2022-07-27T20:07:32.673Z,16.4
2022-07-27T20:13:12.668Z,16.2
2022-07-27T20:18:52.819Z,16
2022-07-27T20:24:32.869Z,15.8
2022-07-27T20:30:13.025Z,15.7
2022-07-27T20:35:53.291Z,15.5
2022-07-27T20:41:33.872Z,15.4
2022-07-27T20:47:14.109Z,15.2
2022-07-27T20:52:54.402Z,15.1
2022-07-27T20:58:34.645Z,15.2
2022-07-27T21:04:15.371Z,15
2022-07-27T21:15:50.408Z,15
2022-07-27T21:21:30.755Z,14.8
2022-07-27T21:27:11.223Z,14.7
2022-07-27T21:32:52.912Z,14.5
2022-07-27T21:38:34.651Z,14.4
2022-07-27T21:44:15.293Z,14.5
2022-07-27T21:49:58.566Z,14.5
2022-07-27T21:55:38.682Z,14.6
2022-07-27T22:01:19.119Z,14.6
2022-07-27T22:07:00.079Z,14.7
2022-07-27T22:12:40.248Z,14.5
2022-07-27T22:18:20.615Z,14.3
2022-07-27T22:24:01.064Z,14.3
2022-07-27T22:29:41.226Z,14.2
2022-07-27T22:35:21.514Z,14.2
2022-07-27T22:41:01.814Z,14.3
2022-07-27T22:46:42.094Z,14.4
2022-07-27T22:52:22.329Z,14.4
2022-07-27T22:58:02.483Z,14.4
2022-07-27T23:03:42.943Z,14.6
2022-07-27T23:09:23.333Z,14.6
2022-07-27T23:15:03.638Z,14.6
2022-07-27T23:20:43.989Z,14.7
2022-07-27T23:26:25.981Z,14.6
2022-07-27T23:32:07.425Z,14.5
2022-07-27T23:37:49.325Z,14.6
2022-07-27T23:43:31.560Z,14.6
2022-07-27T23:49:12.197Z,14.6
2022-07-27T23:54:53.375Z,14.5
